ADDS METAR Data INFO
IDs: Format: Raw Decoded Include TAF

Data at: 0029 UTC 11 Dec 2017

KOVE 102353Z AUTO 00000KT 10SM CLR 16/01 A3025 RMK AO2 SLP244 T01560011 10161 20094 56016
KOVE 102253Z AUTO 27003KT 10SM CLR 16/02 A3025 RMK AO2 SLP246 T01560017
KOVE 102153Z AUTO 29004KT 10SM CLR 15/07 A3027 RMK AO2 SLP251 T01500067
KOVE 102053Z AUTO 26003KT 10SM CLR 16/06 A3029 RMK AO2 SLP260 T01560056 58020
KOVE 101953Z AUTO 00000KT 10SM CLR 15/04 A3032 RMK AO2 SLP271 T01500044
KOVE 101853Z AUTO 00000KT 10SM CLR 12/05 A3035 RMK AO2 SLP279 T01170050
KOVE 101753Z AUTO 00000KT 10SM CLR 09/06 A3035 RMK AO2 SLP281 T00940061 10094 20017 53009
KOVE 101653Z AUTO 00000KT 10SM CLR 07/04 A3033 RMK AO2 SLP275 T00670044
KOVE 101553Z AUTO 09003KT 10SM CLR 03/02 A3033 RMK AO2 SLP273 T00280017
KOVE 101453Z AUTO 35003KT 10SM CLR 03/01 A3032 RMK AO2 SLP271 T00280011 55001
KOVE 101353Z AUTO 00000KT 10SM CLR 03/01 A3032 RMK AO2 SLP271 T00280011
KOVE 101253Z AUTO 04004KT 10SM CLR 03/02 A3032 RMK AO2 SLP269 T00280017
KOVE 101153Z AUTO 10003KT 10SM CLR 04/02 A3032 RMK AO2 SLP271 T00440017 10067 20028 50003
KOVE 101053Z AUTO 12003KT 10SM CLR 04/02 A3033 RMK AO2 SLP273 T00390022
KOVE 100953Z AUTO 09004KT 10SM CLR 04/02 A3032 RMK AO2 SLP271 T00390022
KOVE 100853Z AUTO 00000KT 9SM CLR 04/03 A3032 RMK AO2 SLP268 T00390028 50003
KOVE 100753Z AUTO 07003KT 6SM BR CLR 05/04 A3032 RMK AO2 SLP269 T00500039 401610017
KOVE 100653Z AUTO 00000KT 7SM CLR 06/04 A3032 RMK AO2 SLP269 T00610044
KOVE 100553Z AUTO 00000KT 8SM CLR 07/04 A3031 RMK AO2 SLP266 T00670044 10144 20056 55000
KOVE 100453Z AUTO 00000KT 10SM CLR 07/06 A3030 RMK AO2 SLP265 T00670056
KOVE 100353Z AUTO 00000KT 9SM CLR 09/07 A3031 RMK AO2 SLP265 T00890067
KOVE 100253Z AUTO 02003KT 7SM CLR 08/07 A3031 RMK AO2 SLP266 T00830067 51006
KOVE 100153Z AUTO 05004KT 10SM CLR 09/07 A3030 RMK AO2 SLP265 T00940067
KOVE 100053Z AUTO 00000KT 10SM CLR 12/07 A3030 RMK AO2 SLP262 T01220072
KOVE 092353Z AUTO 00000KT 10SM CLR 14/08 A3029 RMK AO2 SLP259 T01440078 10161 20100 56014
KOVE 092253Z AUTO 27003KT 10SM CLR 14/08 A3030 RMK AO2 SLP262 T01440078
KOVE 092153Z AUTO 27003KT 10SM CLR 16/06 A3031 RMK AO2 SLP265 T01610056
KOVE 092053Z AUTO 28004KT 10SM CLR 15/06 A3033 RMK AO2 SLP273 T01500061 58019
KOVE 091953Z AUTO 27003KT 10SM CLR 13/07 A3036 RMK AO2 SLP284 T01280072
KOVE 091853Z AUTO 30004KT 10SM CLR 12/06 A3038 RMK AO2 SLP290 T01170061
KOVE 091753Z AUTO 31004KT 10SM CLR 10/06 A3039 RMK AO2 SLP293 T01000056 10100 20017 50005
KOVE 091653Z AUTO 00000KT 10SM CLR 07/04 A3039 RMK AO2 SLP294 T00720044
KOVE 091553Z AUTO 00000KT 10SM CLR 03/02 A3039 RMK AO2 SLP293 T00330017
KOVE 091453Z AUTO 00000KT 10SM CLR 03/02 A3037 RMK AO2 SLP288 T00330017 51004
KOVE 091353Z AUTO 00000KT 7SM CLR 05/02 A3037 RMK AO2 SLP287 T00500022
KOVE 091253Z AUTO 00000KT 10SM CLR 04/02 A3037 RMK AO2 SLP287 T00390022